Time;durP1;ratioP1;P1;durP2;ratioP2;P2;SDS_P1;SDS_P2;PMS_P1;PMS_P2;Temp;Humidity;BMP_temperature;BMP_pressure;BME280_temperature;BME280_humidity;BME280_pressure;Samples;Min_cycle;Max_cycle;Signal;HPM_P1;HPM_P2
2023/11/30 06:00:58;;;;;;;;;;;;;;;;;;5733950;23;19926;-49
2023/11/30 06:03:24;;;;;;;;;;;;;;;;;;4980566;28;19936;-46
2023/11/30 06:05:49;;;;;;;;;;;;;;;;;;4976942;28;19914;-45
2023/11/30 06:08:15;;;;;;;;;;;;;;;;;;4956321;28;20000;-46
2023/11/30 06:10:41;;;;;;;;;;;;;;;;;;4973893;28;19932;-49
2023/11/30 06:13:07;;;;;;;;;;;;;;;;;;4973437;28;19973;-46
2023/11/30 06:15:33;;;;;;;;;;;;;;;;;;4985480;28;19914;-44
2023/11/30 06:17:59;;;;;;;;;;;;;;;;;;4992818;28;19916;-45
2023/11/30 06:20:25;;;;;;;;;;;;;;;;;;4975469;28;19913;-47
2023/11/30 06:22:51;;;;;;;;;;;;;;;;;;4993244;28;19910;-44
2023/11/30 06:25:17;;;;;;;;;;;;;;;;;;4992962;28;19910;-46
2023/11/30 06:27:42;;;;;;;;;;;;;;;;;;4991888;28;19915;-47
2023/11/30 06:30:08;;;;;;;;;;;;;;;;;;4992710;28;19977;-44
2023/11/30 06:32:34;;;;;;;;;;;;;;;;;;4992608;28;19921;-46
2023/11/30 06:35:00;;;;;;;;;;;;;;;;;;4991405;28;20377;-45
2023/11/30 06:37:26;;;;;;;;;;;;;;;;;;4992540;28;19910;-47
2023/11/30 06:39:52;;;;;;;;;;;;;;;;;;4992985;28;19943;-48
2023/11/30 06:42:18;;;;;;;;;;;;;;;;;;4992570;28;20443;-45
2023/11/30 06:44:44;;;;;;;;;;;;;;;;;;4990922;28;19953;-45
2023/11/30 06:47:11;;;;;;;;;;;;;;;;;;4992377;28;19909;-45
2023/11/30 06:49:37;;;;;;;;;;;;;;;;;;4991656;28;20320;-45
2023/11/30 06:52:03;;;;;;;;;;;;;;;;;;4992465;28;19920;-45
2023/11/30 06:54:29;;;;;;;;;;;;;;;;;;4992377;28;19964;-48
2023/11/30 06:56:54;;;;;;;;;;;;;;;;;;4986675;28;20020;-48
2023/11/30 06:59:20;;;;;;;;;;;;;;;;;;4984475;28;19914;-46
2023/11/30 07:01:46;;;;;;;;;;;;;;;;;;4975886;28;19925;-46
2023/11/30 07:04:12;;;;;;;;;;;;;;;;;;4975119;28;20377;-46
2023/11/30 07:06:38;;;;;;;;;;;;;;;;;;4987252;28;19914;-46
2023/11/30 07:09:05;;;;;;;;;;;;;;;;;;4972987;28;19914;-46
2023/11/30 07:11:31;;;;;;;;;;;;;;;;;;4983946;28;19917;-49
2023/11/30 07:13:59;;;;;;;;;;;;;;;;;;4980662;28;19921;-46
2023/11/30 07:16:25;;;;;;;;;;;;;;;;;;4984518;28;19918;-48
2023/11/30 07:18:51;;;;;;;;;;;;;;;;;;4974733;28;20328;-47
2023/11/30 07:21:17;;;;;;;;;;;;;;;;;;4972271;28;19914;-48
2023/11/30 07:23:43;;;;;;;;;;;;;;;;;;4972109;28;19910;-44
2023/11/30 07:26:09;;;;;;;;;;;;;;;;;;4955170;28;19914;-46
2023/11/30 07:28:35;;;;;;;;;;;;;;;;;;4979108;28;19925;-45
2023/11/30 07:31:01;;;;;;;;;;;;;;;;;;4983567;28;19921;-44
2023/11/30 07:33:26;;;;;;;;;;;;;;;;;;4977781;28;20025;-45
2023/11/30 07:35:52;;;;;;;;;;;;;;;;;;4971821;28;19914;-44
2023/11/30 07:38:18;;;;;;;;;;;;;;;;;;4970241;28;19968;-45
2023/11/30 07:40:44;;;;;;;;;;;;;;;;;;4968827;28;20459;-45
2023/11/30 07:43:11;;;;;;;;;;;;;;;;;;4972371;28;19949;-44
2023/11/30 07:45:37;;;;;;;;;;;;;;;;;;4972878;28;20562;-45
2023/11/30 07:48:03;;;;;;;;;;;;;;;;;;4976590;28;19929;-46
2023/11/30 07:50:29;;;;;;;;;;;;;;;;;;4975310;28;19913;-46
2023/11/30 07:52:55;;;;;;;;;;;;;;;;;;4986190;28;19928;-45
2023/11/30 07:55:21;;;;;;;;;;;;;;;;;;4985969;28;19914;-47
2023/11/30 07:57:47;;;;;;;;;;;;;;;;;;4971815;28;19945;-46
2023/11/30 08:00:13;;;;;;;;;;;;;;;;;;4953534;28;20005;-47
2023/11/30 08:02:40;;;;;;;;;;;;;;;;;;4976235;28;19985;-48
2023/11/30 08:05:06;;;;;;;;;;;;;;;;;;4981548;28;19914;-47
2023/11/30 08:07:32;;;;;;;;;;;;;;;;;;4972111;28;19910;-47
2023/11/30 08:09:58;;;;;;;;;;;;;;;;;;4977664;28;19922;-49
2023/11/30 08:12:24;;;;;;;;;;;;;;;;;;4972557;28;19977;-49
2023/11/30 08:14:50;;;;;;;;;;;;;;;;;;4972372;28;19956;-49
2023/11/30 08:17:16;;;;;;;;;;;;;;;;;;4971585;28;20406;-47
2023/11/30 08:19:42;;;;;;;;;;;;;;;;;;4972483;28;19914;-47
2023/11/30 08:22:07;;;;;;;;;;;;;;;;;;4983396;28;19910;-46
2023/11/30 08:24:33;;;;;;;;;;;;;;;;;;4984857;28;19910;-47
2023/11/30 08:26:59;;;;;;;;;;;;;;;;;;4978092;28;19972;-48
2023/11/30 08:29:25;;;;;;;;;;;;;;;;;;4976047;28;19973;-48
2023/11/30 08:31:51;;;;;;;;;;;;;;;;;;4969950;28;20324;-45
2023/11/30 08:34:17;;;;;;;;;;;;;;;;;;4966277;28;19968;-46
2023/11/30 08:36:43;;;;;;;;;;;;;;;;;;4970572;28;20423;-47
2023/11/30 08:39:09;;;;;;;;;;;;;;;;;;4971188;28;19910;-46
2023/11/30 08:41:36;;;;;;;;;;;;;;;;;;4970279;28;19921;-48
2023/11/30 08:44:02;;;;;;;;;;;;;;;;;;4971420;28;20297;-47
2023/11/30 08:46:28;;;;;;;;;;;;;;;;;;4970534;28;19910;-46
2023/11/30 08:48:54;;;;;;;;;;;;;;;;;;4971912;28;19916;-45
2023/11/30 08:51:20;;;;;;;;;;;;;;;;;;4972232;28;19925;-49
2023/11/30 08:53:46;;;;;;;;;;;;;;;;;;4971941;28;19910;-45
2023/11/30 08:56:12;;;;;;;;;;;;;;;;;;4961528;28;19910;-47
2023/11/30 08:58:38;;;;;;;;;;;;;;;;;;4956253;28;19914;-45
2023/11/30 09:01:04;;;;;;;;;;;;;;;;;;4970599;28;19918;-45
2023/11/30 09:03:30;;;;;;;;;;;;;;;;;;4972231;28;20017;-46
2023/11/30 09:05:56;;;;;;;;;;;;;;;;;;4971956;28;20311;-45
2023/11/30 09:08:22;;;;;;;;;;;;;;;;;;4971791;28;19910;-46
2023/11/30 09:10:48;;;;;;;;;;;;;;;;;;4971490;28;19957;-47
2023/11/30 09:13:14;;;;;;;;;;;;;;;;;;4975181;28;19914;-48
2023/11/30 09:15:40;;;;;;;;;;;;;;;;;;4975352;28;19910;-46
2023/11/30 09:18:07;;;;;;;;;;;;;;;;;;4975220;28;19910;-46
2023/11/30 09:20:34;;;;;;;;;;;;;;;;;;4974444;28;20304;-46
2023/11/30 09:23:00;;;;;;;;;;;;;;;;;;4974886;28;19979;-45
2023/11/30 09:25:26;;;;;;;;;;;;;;;;;;4973825;28;20431;-45
2023/11/30 09:27:52;;;;;;;;;;;;;;;;;;4974961;28;20012;-44
2023/11/30 09:30:18;;;;;;;;;;;;;;;;;;4975487;28;19996;-44
2023/11/30 09:32:44;;;;;;;;;;;;;;;;;;4975053;28;19921;-47
2023/11/30 09:35:11;;;;;;;;;;;;;;;;;;4975021;28;19910;-45
2023/11/30 09:37:37;;;;;;;;;;;;;;;;;;4959036;28;20385;-45
2023/11/30 09:40:05;;;;;;;;;;;;;;;;;;4955647;29;19917;-46
2023/11/30 09:42:31;;;;;;;;;;;;;;;;;;4958410;28;20346;-46
2023/11/30 09:44:57;;;;;;;;;;;;;;;;;;4974899;28;19956;-47
2023/11/30 09:47:23;;;;;;;;;;;;;;;;;;4974852;28;19921;-46
2023/11/30 09:49:49;;;;;;;;;;;;;;;;;;4974773;28;19925;-45
2023/11/30 09:52:15;;;;;;;;;;;;;;;;;;4974522;28;19921;-48
2023/11/30 09:54:41;;;;;;;;;;;;;;;;;;4974644;28;20304;-45
2023/11/30 09:57:07;;;;;;;;;;;;;;;;;;4973767;28;19972;-45
2023/11/30 09:59:33;;;;;;;;;;;;;;;;;;4971663;28;20393;-44
2023/11/30 10:01:59;;;;;;;;;;;;;;;;;;4972979;28;19926;-44
2023/11/30 10:04:28;;;;;;;;;;;;;;;;;;4974474;28;19981;-44
2023/11/30 10:06:57;;;;;;;;;;;;;;;;;;4974079;28;19922;-44
2023/11/30 10:09:23;;;;;;;;;;;;;;;;;;4974607;28;19910;-45
2023/11/30 10:11:49;;;;;;;;;;;;;;;;;;4974383;28;19921;-46
2023/11/30 10:14:17;;;;;;;;;;;;;;;;;;4974274;28;19962;-47
2023/11/30 10:16:43;;;;;;;;;;;;;;;;;;4974280;28;19911;-49
2023/11/30 10:19:10;;;;;;;;;;;;;;;;;;4974408;28;19917;-46
2023/11/30 10:21:37;;;;;;;;;;;;;;;;;;4973414;28;19911;-44
2023/11/30 10:24:03;;;;;;;;;;;;;;;;;;4973735;28;19911;-44
2023/11/30 10:26:29;;;;;;;;;;;;;;;;;;4973134;28;20025;-44
2023/11/30 10:28:55;;;;;;;;;;;;;;;;;;4973460;28;20461;-48
2023/11/30 10:31:22;;;;;;;;;;;;;;;;;;4973258;28;20444;-45
2023/11/30 10:33:48;;;;;;;;;;;;;;;;;;4973087;28;19910;-45
2023/11/30 10:36:14;;;;;;;;;;;;;;;;;;4971931;28;19910;-45
2023/11/30 10:38:40;;;;;;;;;;;;;;;;;;4972660;28;20369;-45
2023/11/30 10:41:07;;;;;;;;;;;;;;;;;;4955620;28;19918;-47
2023/11/30 10:43:33;;;;;;;;;;;;;;;;;;4973109;28;19989;-46
2023/11/30 10:45:59;;;;;;;;;;;;;;;;;;4973488;28;19917;-46
2023/11/30 10:48:25;;;;;;;;;;;;;;;;;;4972844;28;19914;-46
2023/11/30 10:50:50;;;;;;;;;;;;;;;;;;4972616;28;19957;-45
2023/11/30 10:53:16;;;;;;;;;;;;;;;;;;4972817;28;19950;-46
2023/11/30 10:55:43;;;;;;;;;;;;;;;;;;4971668;28;19914;-45
2023/11/30 10:58:11;;;;;;;;;;;;;;;;;;4973278;28;19910;-45
2023/11/30 11:00:39;;;;;;;;;;;;;;;;;;4972887;28;19925;-46
2023/11/30 11:03:05;;;;;;;;;;;;;;;;;;4971354;28;19929;-47
2023/11/30 11:05:31;;;;;;;;;;;;;;;;;;4973136;28;19910;-48
2023/11/30 11:07:57;;;;;;;;;;;;;;;;;;4973028;28;20373;-48
2023/11/30 11:10:22;;;;;;;;;;;;;;;;;;4972471;28;19910;-49
2023/11/30 11:12:48;;;;;;;;;;;;;;;;;;4972871;28;19918;-45
2023/11/30 11:15:14;;;;;;;;;;;;;;;;;;4973176;28;20440;-45
2023/11/30 11:17:40;;;;;;;;;;;;;;;;;;4970695;28;19921;-45
2023/11/30 11:20:06;;;;;;;;;;;;;;;;;;4971630;28;19908;-44
2023/11/30 11:22:32;;;;;;;;;;;;;;;;;;4970390;28;19946;-46
2023/11/30 11:24:58;;;;;;;;;;;;;;;;;;4971906;28;19925;-45
2023/11/30 11:27:24;;;;;;;;;;;;;;;;;;4972036;28;19917;-45
2023/11/30 11:29:50;;;;;;;;;;;;;;;;;;4970234;28;19910;-45
2023/11/30 11:32:16;;;;;;;;;;;;;;;;;;4971146;28;19969;-49
2023/11/30 11:34:42;;;;;;;;;;;;;;;;;;4970447;28;20420;-45
2023/11/30 11:37:08;;;;;;;;;;;;;;;;;;4971337;28;19910;-46
2023/11/30 11:39:34;;;;;;;;;;;;;;;;;;4968708;28;19914;-45
2023/11/30 11:41:59;;;;;;;;;;;;;;;;;;4970523;28;19914;-45
2023/11/30 11:44:25;;;;;;;;;;;;;;;;;;4971643;28;20001;-45
2023/11/30 11:46:51;;;;;;;;;;;;;;;;;;4971099;28;19914;-46
2023/11/30 11:49:17;;;;;;;;;;;;;;;;;;4970210;28;19914;-45
2023/11/30 11:51:44;;;;;;;;;;;;;;;;;;4970880;28;20440;-48
2023/11/30 11:54:10;;;;;;;;;;;;;;;;;;4971172;28;19917;-46
2023/11/30 11:56:36;;;;;;;;;;;;;;;;;;4971242;28;19910;-45
2023/11/30 11:59:01;;;;;;;;;;;;;;;;;;4969918;28;19914;-46
2023/11/30 12:01:27;;;;;;;;;;;;;;;;;;4971049;28;20321;-45
2023/11/30 12:03:53;;;;;;;;;;;;;;;;;;4951989;28;19921;-46
2023/11/30 12:06:19;;;;;;;;;;;;;;;;;;4980317;28;20369;-45
2023/11/30 12:08:45;;;;;;;;;;;;;;;;;;4966869;28;19961;-45
2023/11/30 12:11:11;;;;;;;;;;;;;;;;;;4970844;28;19910;-47
2023/11/30 12:13:37;;;;;;;;;;;;;;;;;;4969862;28;19910;-45
2023/11/30 12:16:03;;;;;;;;;;;;;;;;;;4968726;28;19952;-45
2023/11/30 12:18:29;;;;;;;;;;;;;;;;;;4968630;28;19921;-45
2023/11/30 12:20:55;;;;;;;;;;;;;;;;;;4968742;28;20016;-45
2023/11/30 12:23:21;;;;;;;;;;;;;;;;;;4967575;28;20312;-45
2023/11/30 12:25:46;;;;;;;;;;;;;;;;;;4969257;28;19915;-47
2023/11/30 12:28:12;;;;;;;;;;;;;;;;;;4972426;28;19918;-48
2023/11/30 12:30:38;;;;;;;;;;;;;;;;;;4969642;28;20293;-46
2023/11/30 12:33:04;;;;;;;;;;;;;;;;;;4970547;28;20388;-50
2023/11/30 12:35:30;;;;;;;;;;;;;;;;;;4978643;28;19914;-49
2023/11/30 12:37:56;;;;;;;;;;;;;;;;;;4971775;28;20411;-45
2023/11/30 12:40:22;;;;;;;;;;;;;;;;;;4976675;28;20644;-49
2023/11/30 12:42:48;;;;;;;;;;;;;;;;;;4969930;28;19917;-46
2023/11/30 12:45:13;;;;;;;;;;;;;;;;;;4976164;28;19944;-49
2023/11/30 12:47:40;;;;;;;;;;;;;;;;;;4971823;28;19973;-47
2023/11/30 12:50:05;;;;;;;;;;;;;;;;;;4974887;28;19957;-45
2023/11/30 12:52:31;;;;;;;;;;;;;;;;;;4971661;28;20317;-47
2023/11/30 12:54:57;;;;;;;;;;;;;;;;;;4971758;28;19914;-48
2023/11/30 12:57:24;;;;;;;;;;;;;;;;;;4972995;28;19910;-46
2023/11/30 12:59:50;;;;;;;;;;;;;;;;;;4973358;28;19957;-47
2023/11/30 13:02:15;;;;;;;;;;;;;;;;;;4961583;28;20012;-47
2023/11/30 13:04:41;;;;;;;;;;;;;;;;;;4970624;28;19937;-47
2023/11/30 13:07:07;;;;;;;;;;;;;;;;;;4976726;28;19993;-48
2023/11/30 13:09:34;;;;;;;;;;;;;;;;;;4971415;28;20285;-45
2023/11/30 13:12:00;;;;;;;;;;;;;;;;;;4971953;28;19918;-49
2023/11/30 13:14:28;;;;;;;;;;;;;;;;;;4970258;28;20005;-46
2023/11/30 13:16:54;;;;;;;;;;;;;;;;;;4972126;28;19966;-49
2023/11/30 13:19:19;;;;;;;;;;;;;;;;;;4981781;28;19968;-48
2023/11/30 13:21:45;;;;;;;;;;;;;;;;;;4974977;28;19949;-45
2023/11/30 13:24:11;;;;;;;;;;;;;;;;;;4970438;28;19910;-45
2023/11/30 13:26:37;;;;;;;;;;;;;;;;;;4972434;28;19910;-46
2023/11/30 13:29:03;;;;;;;;;;;;;;;;;;5508400;23;20294;-42
2023/11/30 13:31:30;;;;;;;;;;;;;;;;;;4932023;29;20365;-42
2023/11/30 13:33:56;;;;;;;;;;;;;;;;;;4931050;29;19985;-42
2023/11/30 13:36:22;;;;;;;;;;;;;;;;;;4929322;29;19922;-42
2023/11/30 13:38:48;;;;;;;;;;;;;;;;;;4930048;29;19915;-41
2023/11/30 13:41:14;;;;;;;;;;;;;;;;;;4930184;28;19962;-43
2023/11/30 13:43:40;;;;;;;;;;;;;;;;;;4917661;29;20376;-42
2023/11/30 13:46:09;;;;;;;;;;;;;;;;;;4932279;29;19915;-43
2023/11/30 13:48:34;;;;;;;;;;;;;;;;;;4937173;29;19970;-42
2023/11/30 13:51:00;;;;;;;;;;;;;;;;;;4945292;29;19915;-42
2023/11/30 13:53:28;;;;;;;;;;;;;;;;;;4951376;29;19914;-43
2023/11/30 13:55:54;;;;;;;;;;;;;;;;;;4951527;28;19965;-43
2023/11/30 13:58:20;;;;;;;;;;;;;;;;;;4931357;28;19939;-43
2023/11/30 14:00:46;;;;;;;;;;;;;;;;;;4939206;29;19940;-43
2023/11/30 14:03:12;;;;;;;;;;;;;;;;;;4921423;29;19966;-44
2023/11/30 14:05:38;;;;;;;;;;;;;;;;;;4924058;29;20440;-43
2023/11/30 14:08:04;;;;;;;;;;;;;;;;;;4934670;29;19944;-44
2023/11/30 14:10:30;;;;;;;;;;;;;;;;;;4940635;29;19993;-42
2023/11/30 14:12:56;;;;;;;;;;;;;;;;;;4950931;29;20320;-44
2023/11/30 14:15:22;;;;;;;;;;;;;;;;;;4950979;29;19919;-43
2023/11/30 14:17:49;;;;;;;;;;;;;;;;;;4951239;29;19918;-43
2023/11/30 14:20:15;;;;;;;;;;;;;;;;;;4944420;28;20194;-43
2023/11/30 14:22:41;;;;;;;;;;;;;;;;;;4923752;29;19920;-43
2023/11/30 14:25:08;;;;;;;;;;;;;;;;;;4912835;29;20346;-43
2023/11/30 14:27:35;;;;;;;;;;;;;;;;;;4927865;29;19922;-43
2023/11/30 14:30:00;;;;;;;;;;;;;;;;;;4939458;29;20014;-43
2023/11/30 14:32:26;;;;;;;;;;;;;;;;;;4932861;29;20006;-44
2023/11/30 14:34:52;;;;;;;;;;;;;;;;;;4933041;29;19918;-44
2023/11/30 14:37:19;;;;;;;;;;;;;;;;;;4932018;29;20163;-42
2023/11/30 14:39:45;;;;;;;;;;;;;;;;;;4931441;29;20006;-43
2023/11/30 14:42:11;;;;;;;;;;;;;;;;;;4932311;29;20009;-44
2023/11/30 14:44:37;;;;;;;;;;;;;;;;;;4931573;29;19915;-43
2023/11/30 14:47:04;;;;;;;;;;;;;;;;;;4931701;29;19911;-43
2023/11/30 14:49:30;;;;;;;;;;;;;;;;;;4931207;29;19974;-43
2023/11/30 14:51:56;;;;;;;;;;;;;;;;;;4931130;29;19915;-43
2023/11/30 14:54:22;;;;;;;;;;;;;;;;;;4931144;29;19911;-47
2023/11/30 14:56:48;;;;;;;;;;;;;;;;;;4931451;29;19911;-43
2023/11/30 14:59:14;;;;;;;;;;;;;;;;;;4931837;29;20001;-43
2023/11/30 15:01:40;;;;;;;;;;;;;;;;;;4939954;29;19915;-44
2023/11/30 15:04:08;;;;;;;;;;;;;;;;;;4932762;28;19981;-44
2023/11/30 15:06:34;;;;;;;;;;;;;;;;;;4932599;29;21028;-44
2023/11/30 15:09:00;;;;;;;;;;;;;;;;;;4936771;28;19915;-43
2023/11/30 15:11:26;;;;;;;;;;;;;;;;;;4951542;29;19952;-44
2023/11/30 15:13:52;;;;;;;;;;;;;;;;;;4937201;29;19966;-43
2023/11/30 15:16:18;;;;;;;;;;;;;;;;;;4932707;29;19910;-44
2023/11/30 15:18:44;;;;;;;;;;;;;;;;;;4943714;29;19915;-42
2023/11/30 15:21:10;;;;;;;;;;;;;;;;;;4948535;29;20001;-45
2023/11/30 15:23:36;;;;;;;;;;;;;;;;;;4930488;29;20290;-45
2023/11/30 15:26:02;;;;;;;;;;;;;;;;;;4950742;29;19922;-43
2023/11/30 15:28:28;;;;;;;;;;;;;;;;;;4951515;28;19910;-43
2023/11/30 15:30:54;;;;;;;;;;;;;;;;;;4942364;29;20009;-46
2023/11/30 15:33:20;;;;;;;;;;;;;;;;;;4947734;29;20389;-43
2023/11/30 15:35:46;;;;;;;;;;;;;;;;;;4949092;29;19958;-42
2023/11/30 15:38:12;;;;;;;;;;;;;;;;;;4930981;29;20377;-43
2023/11/30 15:40:38;;;;;;;;;;;;;;;;;;4932127;29;19938;-45
2023/11/30 15:43:03;;;;;;;;;;;;;;;;;;4932107;29;19911;-45
2023/11/30 15:45:29;;;;;;;;;;;;;;;;;;4930278;29;20302;-46
2023/11/30 15:47:55;;;;;;;;;;;;;;;;;;4932079;29;19911;-46
2023/11/30 15:50:21;;;;;;;;;;;;;;;;;;4931010;29;20394;-47
2023/11/30 15:52:47;;;;;;;;;;;;;;;;;;4932025;29;20362;-48
2023/11/30 15:55:13;;;;;;;;;;;;;;;;;;4930788;29;19954;-44
2023/11/30 15:57:39;;;;;;;;;;;;;;;;;;4932430;29;19918;-46
2023/11/30 16:00:06;;;;;;;;;;;;;;;;;;4931708;29;20005;-45
2023/11/30 16:02:32;;;;;;;;;;;;;;;;;;4931889;29;19994;-43
2023/11/30 16:04:58;;;;;;;;;;;;;;;;;;4934650;29;19977;-45
2023/11/30 16:07:24;;;;;;;;;;;;;;;;;;4950698;28;19911;-44
2023/11/30 16:09:50;;;;;;;;;;;;;;;;;;4950789;29;20004;-45
2023/11/30 16:12:16;;;;;;;;;;;;;;;;;;4950810;29;20017;-44
2023/11/30 16:14:41;;;;;;;;;;;;;;;;;;4946108;29;20389;-46
2023/11/30 16:17:08;;;;;;;;;;;;;;;;;;4950860;29;20004;-45
2023/11/30 16:19:34;;;;;;;;;;;;;;;;;;4937350;28;19915;-44
2023/11/30 16:21:59;;;;;;;;;;;;;;;;;;4934910;29;19914;-43
2023/11/30 16:24:25;;;;;;;;;;;;;;;;;;4947821;29;20461;-45
2023/11/30 16:26:51;;;;;;;;;;;;;;;;;;4932644;29;20005;-45
2023/11/30 16:29:17;;;;;;;;;;;;;;;;;;4933311;29;19921;-44
2023/11/30 16:31:43;;;;;;;;;;;;;;;;;;4934193;29;19926;-48
2023/11/30 16:34:09;;;;;;;;;;;;;;;;;;4933931;29;20413;-44
2023/11/30 16:36:36;;;;;;;;;;;;;;;;;;4933471;29;19950;-43
2023/11/30 16:39:03;;;;;;;;;;;;;;;;;;4933383;29;19925;-44
2023/11/30 16:41:29;;;;;;;;;;;;;;;;;;4933628;29;19915;-46
2023/11/30 16:43:55;;;;;;;;;;;;;;;;;;4933651;29;19925;-44
2023/11/30 16:46:21;;;;;;;;;;;;;;;;;;4933300;29;19918;-48
2023/11/30 16:48:47;;;;;;;;;;;;;;;;;;4933399;29;20072;-48
2023/11/30 16:51:12;;;;;;;;;;;;;;;;;;4934004;29;20005;-44
2023/11/30 16:53:38;;;;;;;;;;;;;;;;;;4933335;29;20266;-48
2023/11/30 16:56:04;;;;;;;;;;;;;;;;;;4934027;29;20523;-43
2023/11/30 16:58:31;;;;;;;;;;;;;;;;;;4933526;29;19959;-44
2023/11/30 17:00:57;;;;;;;;;;;;;;;;;;4933600;29;19915;-44
2023/11/30 17:03:26;;;;;;;;;;;;;;;;;;4933804;29;19911;-44
2023/11/30 17:05:52;;;;;;;;;;;;;;;;;;4933502;29;19919;-45
2023/11/30 17:08:18;;;;;;;;;;;;;;;;;;4933171;29;20328;-43
2023/11/30 17:10:45;;;;;;;;;;;;;;;;;;4934099;29;19911;-43
2023/11/30 17:13:12;;;;;;;;;;;;;;;;;;4934043;29;19915;-44
2023/11/30 17:15:38;;;;;;;;;;;;;;;;;;4933250;29;19984;-43
2023/11/30 17:18:04;;;;;;;;;;;;;;;;;;4933265;29;19931;-45
2023/11/30 17:20:29;;;;;;;;;;;;;;;;;;4933195;29;20002;-45
2023/11/30 17:22:55;;;;;;;;;;;;;;;;;;4933540;29;19911;-45
2023/11/30 17:25:22;;;;;;;;;;;;;;;;;;4933126;29;19915;-44
2023/11/30 17:27:47;;;;;;;;;;;;;;;;;;4933276;29;19998;-44
2023/11/30 17:30:13;;;;;;;;;;;;;;;;;;4933840;29;19994;-46
2023/11/30 17:32:39;;;;;;;;;;;;;;;;;;4932494;29;19919;-44
2023/11/30 17:35:05;;;;;;;;;;;;;;;;;;4933260;29;19914;-43
2023/11/30 17:37:31;;;;;;;;;;;;;;;;;;4932158;29;19954;-43
2023/11/30 17:39:57;;;;;;;;;;;;;;;;;;4931112;29;19923;-42
2023/11/30 17:42:23;;;;;;;;;;;;;;;;;;4932820;29;20370;-42
2023/11/30 17:44:49;;;;;;;;;;;;;;;;;;4930655;29;19915;-43
2023/11/30 17:47:15;;;;;;;;;;;;;;;;;;4931730;29;19946;-46
2023/11/30 17:49:42;;;;;;;;;;;;;;;;;;4942501;29;19937;-43
2023/11/30 17:52:08;;;;;;;;;;;;;;;;;;4935900;28;19919;-42
2023/11/30 17:54:35;;;;;;;;;;;;;;;;;;4939120;29;20338;-43
2023/11/30 17:57:02;;;;;;;;;;;;;;;;;;4931232;29;19923;-42
2023/11/30 17:59:28;;;;;;;;;;;;;;;;;;4933274;29;19915;-42
2023/11/30 18:01:54;;;;;;;;;;;;;;;;;;4931372;29;20277;-42
2023/11/30 18:04:19;;;;;;;;;;;;;;;;;;4940145;29;19970;-42
2023/11/30 18:06:45;;;;;;;;;;;;;;;;;;4930964;29;19919;-43
2023/11/30 18:09:11;;;;;;;;;;;;;;;;;;4927644;29;19934;-44
2023/11/30 18:11:37;;;;;;;;;;;;;;;;;;4939089;29;19919;-44
2023/11/30 18:14:05;;;;;;;;;;;;;;;;;;4929700;29;20525;-42
2023/11/30 18:16:32;;;;;;;;;;;;;;;;;;4930903;29;19970;-43
2023/11/30 18:18:58;;;;;;;;;;;;;;;;;;4929858;29;19915;-42
2023/11/30 18:21:25;;;;;;;;;;;;;;;;;;4928280;29;19951;-41
2023/11/30 18:23:51;;;;;;;;;;;;;;;;;;4930710;29;19919;-42
2023/11/30 18:26:18;;;;;;;;;;;;;;;;;;4930905;29;20366;-42
2023/11/30 18:28:45;;;;;;;;;;;;;;;;;;4928130;29;19915;-41
2023/11/30 18:31:11;;;;;;;;;;;;;;;;;;4928943;29;20014;-42
2023/11/30 18:33:37;;;;;;;;;;;;;;;;;;4950178;28;20005;-41
2023/11/30 18:36:03;;;;;;;;;;;;;;;;;;4934825;29;20017;-42
2023/11/30 18:38:29;;;;;;;;;;;;;;;;;;4930206;29;20337;-42
2023/11/30 18:40:55;;;;;;;;;;;;;;;;;;4937808;29;19942;-42
2023/11/30 18:43:21;;;;;;;;;;;;;;;;;;4949140;28;19914;-42
2023/11/30 18:45:46;;;;;;;;;;;;;;;;;;4930455;29;19951;-42
2023/11/30 18:48:12;;;;;;;;;;;;;;;;;;4932026;29;19915;-41
2023/11/30 18:50:38;;;;;;;;;;;;;;;;;;4926607;29;19915;-43
2023/11/30 18:53:04;;;;;;;;;;;;;;;;;;4930362;29;19942;-42
2023/11/30 18:55:30;;;;;;;;;;;;;;;;;;4926753;29;19963;-42
2023/11/30 18:57:56;;;;;;;;;;;;;;;;;;4929798;29;20223;-44
2023/11/30 19:00:22;;;;;;;;;;;;;;;;;;4926785;29;19975;-42
2023/11/30 19:02:48;;;;;;;;;;;;;;;;;;4924893;29;19915;-42
2023/11/30 19:05:14;;;;;;;;;;;;;;;;;;4927210;29;19915;-41
2023/11/30 19:07:40;;;;;;;;;;;;;;;;;;4926906;29;20006;-41
2023/11/30 19:10:07;;;;;;;;;;;;;;;;;;4927058;29;19922;-42
2023/11/30 19:12:33;;;;;;;;;;;;;;;;;;4925795;29;20017;-41
2023/11/30 19:14:59;;;;;;;;;;;;;;;;;;4926265;29;19982;-42
2023/11/30 19:17:25;;;;;;;;;;;;;;;;;;4928743;29;19915;-42
2023/11/30 19:19:51;;;;;;;;;;;;;;;;;;4928698;29;20009;-41
2023/11/30 19:22:17;;;;;;;;;;;;;;;;;;4927403;29;20050;-43
2023/11/30 19:24:43;;;;;;;;;;;;;;;;;;4927091;29;19922;-42
2023/11/30 19:27:09;;;;;;;;;;;;;;;;;;4925248;29;20340;-42
2023/11/30 19:29:35;;;;;;;;;;;;;;;;;;4927485;29;19929;-41
2023/11/30 19:32:01;;;;;;;;;;;;;;;;;;4927053;29;20677;-41
2023/11/30 19:34:27;;;;;;;;;;;;;;;;;;4935808;29;19922;-42
2023/11/30 19:36:53;;;;;;;;;;;;;;;;;;4923930;29;19969;-41
2023/11/30 19:39:21;;;;;;;;;;;;;;;;;;4925962;29;19922;-41
2023/11/30 19:41:47;;;;;;;;;;;;;;;;;;4940620;29;19914;-41
2023/11/30 19:44:15;;;;;;;;;;;;;;;;;;4934568;29;19974;-42
2023/11/30 19:46:42;;;;;;;;;;;;;;;;;;4929163;29;20460;-41
2023/11/30 19:49:08;;;;;;;;;;;;;;;;;;4930039;29;19941;-43
2023/11/30 19:51:34;;;;;;;;;;;;;;;;;;4927086;29;20301;-42
2023/11/30 19:54:02;;;;;;;;;;;;;;;;;;4932063;29;19915;-41
2023/11/30 19:56:28;;;;;;;;;;;;;;;;;;4929082;29;19915;-42
2023/11/30 19:58:54;;;;;;;;;;;;;;;;;;4928957;29;19921;-42
2023/11/30 20:01:21;;;;;;;;;;;;;;;;;;4927316;29;19914;-41
2023/11/30 20:03:46;;;;;;;;;;;;;;;;;;4926121;29;19937;-42
2023/11/30 20:06:12;;;;;;;;;;;;;;;;;;4928216;29;20386;-42
2023/11/30 20:08:38;;;;;;;;;;;;;;;;;;4928086;29;19916;-44
2023/11/30 20:11:05;;;;;;;;;;;;;;;;;;4929356;29;19911;-43
2023/11/30 20:13:31;;;;;;;;;;;;;;;;;;4925959;29;20436;-43
2023/11/30 20:15:57;;;;;;;;;;;;;;;;;;4928462;29;19914;-45
2023/11/30 20:18:23;;;;;;;;;;;;;;;;;;4940027;29;19966;-43
2023/11/30 20:20:49;;;;;;;;;;;;;;;;;;4931733;29;19958;-42
2023/11/30 20:23:15;;;;;;;;;;;;;;;;;;4933922;29;20408;-42
2023/11/30 20:25:41;;;;;;;;;;;;;;;;;;4927321;29;19923;-44
2023/11/30 20:28:07;;;;;;;;;;;;;;;;;;4928436;29;19915;-42
2023/11/30 20:30:33;;;;;;;;;;;;;;;;;;4927989;29;20389;-45
2023/11/30 20:32:59;;;;;;;;;;;;;;;;;;4929391;29;19919;-43
2023/11/30 20:35:25;;;;;;;;;;;;;;;;;;4925171;29;20387;-42
2023/11/30 20:37:50;;;;;;;;;;;;;;;;;;4927406;29;19923;-43
2023/11/30 20:40:16;;;;;;;;;;;;;;;;;;4928537;29;20297;-43
2023/11/30 20:42:43;;;;;;;;;;;;;;;;;;4930918;29;20230;-43
2023/11/30 20:45:09;;;;;;;;;;;;;;;;;;4927571;29;19954;-44
2023/11/30 20:47:34;;;;;;;;;;;;;;;;;;4928321;29;19965;-44
2023/11/30 20:50:00;;;;;;;;;;;;;;;;;;4910533;29;19911;-42
2023/11/30 20:52:26;;;;;;;;;;;;;;;;;;4928324;29;19923;-43
2023/11/30 20:54:52;;;;;;;;;;;;;;;;;;4928020;29;19915;-42
2023/11/30 20:57:18;;;;;;;;;;;;;;;;;;4930938;29;19914;-43
2023/11/30 20:59:44;;;;;;;;;;;;;;;;;;4933403;29;20371;-43
2023/11/30 21:02:10;;;;;;;;;;;;;;;;;;4927016;29;19919;-43
2023/11/30 21:04:35;;;;;;;;;;;;;;;;;;4926460;29;20342;-42
2023/11/30 21:07:01;;;;;;;;;;;;;;;;;;4928894;29;20011;-43
2023/11/30 21:09:28;;;;;;;;;;;;;;;;;;4932047;29;20440;-45
2023/11/30 21:11:54;;;;;;;;;;;;;;;;;;4932009;29;20325;-42
2023/11/30 21:14:20;;;;;;;;;;;;;;;;;;4929335;29;19915;-44
2023/11/30 21:16:46;;;;;;;;;;;;;;;;;;4931989;29;19921;-42
2023/11/30 21:19:12;;;;;;;;;;;;;;;;;;4929923;29;19922;-42
2023/11/30 21:21:38;;;;;;;;;;;;;;;;;;4932107;29;20386;-41
2023/11/30 21:24:03;;;;;;;;;;;;;;;;;;4931253;29;19918;-43
2023/11/30 21:26:29;;;;;;;;;;;;;;;;;;4930783;29;20005;-42
2023/11/30 21:28:55;;;;;;;;;;;;;;;;;;4931752;29;19970;-45
2023/11/30 21:31:21;;;;;;;;;;;;;;;;;;4929170;29;19919;-41
2023/11/30 21:33:47;;;;;;;;;;;;;;;;;;4946196;29;19919;-42
2023/11/30 21:36:13;;;;;;;;;;;;;;;;;;4930136;29;20630;-42
2023/11/30 21:38:39;;;;;;;;;;;;;;;;;;4930645;29;19965;-45
2023/11/30 21:41:05;;;;;;;;;;;;;;;;;;4930928;29;19918;-42
2023/11/30 21:43:31;;;;;;;;;;;;;;;;;;4929894;29;19918;-43
2023/11/30 21:45:57;;;;;;;;;;;;;;;;;;4929518;29;19915;-42
2023/11/30 21:48:23;;;;;;;;;;;;;;;;;;4930187;29;19918;-41
2023/11/30 21:50:48;;;;;;;;;;;;;;;;;;4932136;29;19915;-42
2023/11/30 21:53:14;;;;;;;;;;;;;;;;;;4931956;29;20429;-41
2023/11/30 21:55:40;;;;;;;;;;;;;;;;;;4931131;29;19925;-42
2023/11/30 21:58:06;;;;;;;;;;;;;;;;;;4931608;29;19938;-42
2023/11/30 22:00:32;;;;;;;;;;;;;;;;;;4929409;29;20630;-42
2023/11/30 22:02:58;;;;;;;;;;;;;;;;;;4947311;29;20420;-42
2023/11/30 22:05:25;;;;;;;;;;;;;;;;;;4950216;28;19915;-41
2023/11/30 22:07:50;;;;;;;;;;;;;;;;;;4934204;28;19915;-42
2023/11/30 22:10:16;;;;;;;;;;;;;;;;;;4948209;29;19911;-42
2023/11/30 22:12:42;;;;;;;;;;;;;;;;;;4950375;29;19922;-43
2023/11/30 22:15:08;;;;;;;;;;;;;;;;;;4950497;29;19911;-41
2023/11/30 22:17:34;;;;;;;;;;;;;;;;;;4948901;29;19911;-41
2023/11/30 22:20:00;;;;;;;;;;;;;;;;;;4950256;28;19910;-41
2023/11/30 22:22:26;;;;;;;;;;;;;;;;;;4936851;29;19950;-42
2023/11/30 22:24:52;;;;;;;;;;;;;;;;;;4931279;29;19957;-43
2023/11/30 22:27:19;;;;;;;;;;;;;;;;;;4933018;29;19919;-42
2023/11/30 22:29:45;;;;;;;;;;;;;;;;;;4950267;28;20312;-43
2023/11/30 22:32:11;;;;;;;;;;;;;;;;;;4950198;29;19962;-42
2023/11/30 22:34:38;;;;;;;;;;;;;;;;;;4948604;29;19973;-42
2023/11/30 22:37:04;;;;;;;;;;;;;;;;;;4940703;29;19915;-42